Terminal Aerodrome Forecast
Issued by NWS Portland, OR

Home | Current Version | Previous Version | Text Only | Print | Product List | Glossary On
Versions: 1 2 3 4 5 6 7 8 9 10 11 12 13 14 15 16 17 18 19 20 21 22 23 24 25 26 27 28 29 30 31 32 33 34 35 36 37 38
000
FTUS46 KPQR 281137
TAFSLE
TAF
KSLE 281137Z 2812/2912 VRB03KT P6SM BKN060
     FM281400 18006KT P6SM BKN015 BKN050
     FM281700 19008KT P6SM -RA BKN025 OVC050
     FM282200 26010KT P6SM -SHRA SCT025 OVC045
     FM290100 30007KT P6SM VCSH FEW030 BKN045
     FM290800 24005KT P6SM SCT015 BKN040=

USA.gov is the U.S. government's official web portal to all federal, state and local government web resources and services.